sensor_id;sensor_type;location;lat;lon;timestamp;P1;durP1;ratioP1;P2;durP2;ratioP2
25351;SDS011;13304;48.464;8.712;2024-03-02T00:00:05;15.07;;;8.55;;
25351;SDS011;13304;48.464;8.712;2024-03-02T00:02:40;16.63;;;8.65;;
25351;SDS011;13304;48.464;8.712;2024-03-02T00:05:06;19.67;;;10.30;;
25351;SDS011;13304;48.464;8.712;2024-03-02T00:07:32;17.25;;;9.63;;
25351;SDS011;13304;48.464;8.712;2024-03-02T00:09:58;17.77;;;10.38;;
25351;SDS011;13304;48.464;8.712;2024-03-02T00:12:24;15.60;;;9.75;;
25351;SDS011;13304;48.464;8.712;2024-03-02T00:14:50;17.92;;;10.57;;
25351;SDS011;13304;48.464;8.712;2024-03-02T00:17:24;18.00;;;9.98;;
25351;SDS011;13304;48.464;8.712;2024-03-02T00:19:51;16.10;;;10.23;;
25351;SDS011;13304;48.464;8.712;2024-03-02T00:22:17;17.13;;;10.38;;
25351;SDS011;13304;48.464;8.712;2024-03-02T00:24:43;15.60;;;10.05;;
25351;SDS011;13304;48.464;8.712;2024-03-02T00:27:09;16.02;;;10.23;;
25351;SDS011;13304;48.464;8.712;2024-03-02T00:29:39;16.38;;;10.05;;
25351;SDS011;13304;48.464;8.712;2024-03-02T00:32:16;17.02;;;10.65;;
25351;SDS011;13304;48.464;8.712;2024-03-02T00:34:42;17.80;;;10.52;;
25351;SDS011;13304;48.464;8.712;2024-03-02T00:37:08;16.48;;;10.10;;
25351;SDS011;13304;48.464;8.712;2024-03-02T00:39:34;16.85;;;10.43;;
25351;SDS011;13304;48.464;8.712;2024-03-02T00:42:00;15.63;;;9.88;;
25351;SDS011;13304;48.464;8.712;2024-03-02T00:44:26;14.25;;;9.68;;
25351;SDS011;13304;48.464;8.712;2024-03-02T00:46:54;15.98;;;9.77;;
25351;SDS011;13304;48.464;8.712;2024-03-02T00:51:48;16.90;;;9.85;;
25351;SDS011;13304;48.464;8.712;2024-03-02T00:54:21;15.48;;;10.02;;
25351;SDS011;13304;48.464;8.712;2024-03-02T00:56:51;22.90;;;11.90;;
25351;SDS011;13304;48.464;8.712;2024-03-02T00:59:17;19.85;;;11.65;;
25351;SDS011;13304;48.464;8.712;2024-03-02T01:01:43;17.30;;;10.13;;
25351;SDS011;13304;48.464;8.712;2024-03-02T01:04:09;16.05;;;9.50;;
25351;SDS011;13304;48.464;8.712;2024-03-02T01:06:35;20.08;;;10.38;;
25351;SDS011;13304;48.464;8.712;2024-03-02T01:09:01;19.80;;;11.50;;
25351;SDS011;13304;48.464;8.712;2024-03-02T01:11:27;19.38;;;12.18;;
25351;SDS011;13304;48.464;8.712;2024-03-02T01:13:53;18.75;;;12.60;;
25351;SDS011;13304;48.464;8.712;2024-03-02T01:16:19;22.38;;;12.57;;
25351;SDS011;13304;48.464;8.712;2024-03-02T01:18:45;21.98;;;13.45;;
25351;SDS011;13304;48.464;8.712;2024-03-02T01:21:11;17.95;;;12.05;;
25351;SDS011;13304;48.464;8.712;2024-03-02T01:23:37;19.70;;;12.88;;
25351;SDS011;13304;48.464;8.712;2024-03-02T01:26:03;23.60;;;12.63;;
25351;SDS011;13304;48.464;8.712;2024-03-02T01:28:28;20.60;;;12.63;;
25351;SDS011;13304;48.464;8.712;2024-03-02T01:30:54;20.40;;;12.77;;
25351;SDS011;13304;48.464;8.712;2024-03-02T01:33:21;19.73;;;12.63;;
25351;SDS011;13304;48.464;8.712;2024-03-02T01:35:47;19.35;;;11.43;;
25351;SDS011;13304;48.464;8.712;2024-03-02T01:38:13;16.42;;;11.52;;
25351;SDS011;13304;48.464;8.712;2024-03-02T01:40:38;23.77;;;11.90;;
25351;SDS011;13304;48.464;8.712;2024-03-02T01:43:05;19.00;;;12.07;;
25351;SDS011;13304;48.464;8.712;2024-03-02T01:45:31;17.52;;;11.23;;
25351;SDS011;13304;48.464;8.712;2024-03-02T01:47:57;18.02;;;11.10;;
25351;SDS011;13304;48.464;8.712;2024-03-02T01:50:31;15.88;;;10.85;;
25351;SDS011;13304;48.464;8.712;2024-03-02T01:52:58;17.55;;;10.68;;
25351;SDS011;13304;48.464;8.712;2024-03-02T01:55:24;15.38;;;9.85;;
25351;SDS011;13304;48.464;8.712;2024-03-02T01:57:50;16.92;;;11.18;;
25351;SDS011;13304;48.464;8.712;2024-03-02T02:00:17;16.13;;;10.40;;
25351;SDS011;13304;48.464;8.712;2024-03-02T02:02:44;17.40;;;10.82;;
25351;SDS011;13304;48.464;8.712;2024-03-02T02:05:11;18.08;;;10.05;;
25351;SDS011;13304;48.464;8.712;2024-03-02T02:07:38;17.63;;;10.77;;
25351;SDS011;13304;48.464;8.712;2024-03-02T02:10:04;18.17;;;11.23;;
25351;SDS011;13304;48.464;8.712;2024-03-02T02:12:29;17.00;;;10.00;;
25351;SDS011;13304;48.464;8.712;2024-03-02T02:14:55;16.23;;;9.93;;
25351;SDS011;13304;48.464;8.712;2024-03-02T02:17:21;17.02;;;10.57;;
25351;SDS011;13304;48.464;8.712;2024-03-02T02:19:47;14.45;;;9.50;;
25351;SDS011;13304;48.464;8.712;2024-03-02T02:22:12;15.50;;;10.30;;
25351;SDS011;13304;48.464;8.712;2024-03-02T02:24:41;17.80;;;10.80;;
25351;SDS011;13304;48.464;8.712;2024-03-02T02:27:07;17.45;;;10.95;;
25351;SDS011;13304;48.464;8.712;2024-03-02T02:29:35;17.08;;;10.80;;
25351;SDS011;13304;48.464;8.712;2024-03-02T02:32:01;17.23;;;11.50;;
25351;SDS011;13304;48.464;8.712;2024-03-02T02:34:26;18.88;;;11.70;;
25351;SDS011;13304;48.464;8.712;2024-03-02T02:36:52;19.33;;;11.32;;
25351;SDS011;13304;48.464;8.712;2024-03-02T02:39:18;20.95;;;12.10;;
25351;SDS011;13304;48.464;8.712;2024-03-02T02:41:47;20.15;;;11.70;;
25351;SDS011;13304;48.464;8.712;2024-03-02T02:44:13;16.08;;;10.63;;
25351;SDS011;13304;48.464;8.712;2024-03-02T02:46:39;17.58;;;11.77;;
25351;SDS011;13304;48.464;8.712;2024-03-02T02:49:05;17.40;;;11.52;;
25351;SDS011;13304;48.464;8.712;2024-03-02T02:51:31;16.88;;;10.50;;
25351;SDS011;13304;48.464;8.712;2024-03-02T02:53:56;19.88;;;11.77;;
25351;SDS011;13304;48.464;8.712;2024-03-02T02:56:22;15.18;;;10.38;;
25351;SDS011;13304;48.464;8.712;2024-03-02T02:58:48;18.17;;;11.13;;
25351;SDS011;13304;48.464;8.712;2024-03-02T03:01:14;18.33;;;12.25;;
25351;SDS011;13304;48.464;8.712;2024-03-02T03:03:42;16.02;;;11.30;;
25351;SDS011;13304;48.464;8.712;2024-03-02T03:06:09;17.40;;;10.85;;
25351;SDS011;13304;48.464;8.712;2024-03-02T03:08:35;18.67;;;11.02;;
25351;SDS011;13304;48.464;8.712;2024-03-02T03:11:01;21.85;;;13.15;;
25351;SDS011;13304;48.464;8.712;2024-03-02T03:13:26;20.55;;;12.43;;
25351;SDS011;13304;48.464;8.712;2024-03-02T03:15:52;24.15;;;14.07;;
25351;SDS011;13304;48.464;8.712;2024-03-02T03:18:18;21.73;;;13.10;;
25351;SDS011;13304;48.464;8.712;2024-03-02T03:20:44;20.02;;;12.13;;
25351;SDS011;13304;48.464;8.712;2024-03-02T03:23:09;22.27;;;13.27;;
25351;SDS011;13304;48.464;8.712;2024-03-02T03:25:41;22.00;;;13.07;;
25351;SDS011;13304;48.464;8.712;2024-03-02T03:28:07;19.38;;;12.70;;
25351;SDS011;13304;48.464;8.712;2024-03-02T03:30:35;22.70;;;13.15;;
25351;SDS011;13304;48.464;8.712;2024-03-02T03:33:04;21.20;;;13.02;;
25351;SDS011;13304;48.464;8.712;2024-03-02T03:35:31;18.60;;;12.45;;
25351;SDS011;13304;48.464;8.712;2024-03-02T03:37:57;19.80;;;12.50;;
25351;SDS011;13304;48.464;8.712;2024-03-02T03:40:23;23.40;;;13.15;;
25351;SDS011;13304;48.464;8.712;2024-03-02T03:42:49;20.55;;;13.13;;
25351;SDS011;13304;48.464;8.712;2024-03-02T03:45:15;18.92;;;12.15;;
25351;SDS011;13304;48.464;8.712;2024-03-02T03:47:41;20.05;;;12.38;;
25351;SDS011;13304;48.464;8.712;2024-03-02T03:50:07;21.83;;;11.75;;
25351;SDS011;13304;48.464;8.712;2024-03-02T03:52:33;19.15;;;11.95;;
25351;SDS011;13304;48.464;8.712;2024-03-02T03:54:58;18.80;;;11.88;;
25351;SDS011;13304;48.464;8.712;2024-03-02T03:57:25;18.25;;;11.23;;
25351;SDS011;13304;48.464;8.712;2024-03-02T03:59:51;17.65;;;11.48;;
25351;SDS011;13304;48.464;8.712;2024-03-02T04:02:17;18.40;;;11.20;;
25351;SDS011;13304;48.464;8.712;2024-03-02T04:04:43;16.50;;;10.93;;
25351;SDS011;13304;48.464;8.712;2024-03-02T04:07:09;18.35;;;11.00;;
25351;SDS011;13304;48.464;8.712;2024-03-02T04:09:34;19.67;;;11.88;;
25351;SDS011;13304;48.464;8.712;2024-03-02T04:12:00;19.65;;;11.80;;
25351;SDS011;13304;48.464;8.712;2024-03-02T04:14:26;18.73;;;11.40;;
25351;SDS011;13304;48.464;8.712;2024-03-02T04:16:51;17.90;;;11.55;;
25351;SDS011;13304;48.464;8.712;2024-03-02T04:19:17;19.10;;;12.38;;
25351;SDS011;13304;48.464;8.712;2024-03-02T04:21:42;21.00;;;12.82;;
25351;SDS011;13304;48.464;8.712;2024-03-02T04:24:08;20.23;;;12.60;;
25351;SDS011;13304;48.464;8.712;2024-03-02T04:26:34;17.10;;;11.00;;
25351;SDS011;13304;48.464;8.712;2024-03-02T04:28:59;18.75;;;11.98;;
25351;SDS011;13304;48.464;8.712;2024-03-02T04:31:25;21.27;;;12.57;;
25351;SDS011;13304;48.464;8.712;2024-03-02T04:33:51;21.77;;;12.80;;
25351;SDS011;13304;48.464;8.712;2024-03-02T04:36:16;19.23;;;11.60;;
25351;SDS011;13304;48.464;8.712;2024-03-02T04:38:42;19.35;;;11.52;;
25351;SDS011;13304;48.464;8.712;2024-03-02T04:41:08;20.90;;;12.80;;
25351;SDS011;13304;48.464;8.712;2024-03-02T04:43:34;19.70;;;12.27;;
25351;SDS011;13304;48.464;8.712;2024-03-02T04:46:00;19.75;;;12.15;;
25351;SDS011;13304;48.464;8.712;2024-03-02T04:48:26;18.33;;;11.80;;
25351;SDS011;13304;48.464;8.712;2024-03-02T04:50:52;20.10;;;11.43;;
25351;SDS011;13304;48.464;8.712;2024-03-02T04:53:17;19.48;;;12.18;;
25351;SDS011;13304;48.464;8.712;2024-03-02T04:55:43;20.52;;;12.60;;
25351;SDS011;13304;48.464;8.712;2024-03-02T04:58:09;19.95;;;12.93;;
25351;SDS011;13304;48.464;8.712;2024-03-02T05:00:34;24.88;;;13.40;;
25351;SDS011;13304;48.464;8.712;2024-03-02T05:03:01;20.05;;;12.45;;
25351;SDS011;13304;48.464;8.712;2024-03-02T05:05:27;20.17;;;12.75;;
25351;SDS011;13304;48.464;8.712;2024-03-02T05:07:53;20.77;;;12.93;;
25351;SDS011;13304;48.464;8.712;2024-03-02T05:10:18;20.55;;;12.98;;
25351;SDS011;13304;48.464;8.712;2024-03-02T05:12:44;19.17;;;12.30;;
25351;SDS011;13304;48.464;8.712;2024-03-02T05:15:11;23.17;;;12.77;;
25351;SDS011;13304;48.464;8.712;2024-03-02T05:17:37;19.48;;;12.57;;
25351;SDS011;13304;48.464;8.712;2024-03-02T05:20:05;18.30;;;12.00;;
25351;SDS011;13304;48.464;8.712;2024-03-02T05:22:33;20.35;;;12.90;;
25351;SDS011;13304;48.464;8.712;2024-03-02T05:24:59;21.92;;;13.07;;
25351;SDS011;13304;48.464;8.712;2024-03-02T05:27:26;21.40;;;13.05;;
25351;SDS011;13304;48.464;8.712;2024-03-02T05:29:52;20.67;;;13.40;;
25351;SDS011;13304;48.464;8.712;2024-03-02T05:32:17;19.42;;;12.73;;
25351;SDS011;13304;48.464;8.712;2024-03-02T05:34:43;18.40;;;12.13;;
25351;SDS011;13304;48.464;8.712;2024-03-02T05:37:09;21.38;;;13.27;;
25351;SDS011;13304;48.464;8.712;2024-03-02T05:39:34;19.52;;;12.70;;
25351;SDS011;13304;48.464;8.712;2024-03-02T05:42:00;20.27;;;12.77;;
25351;SDS011;13304;48.464;8.712;2024-03-02T05:44:26;21.33;;;13.68;;
25351;SDS011;13304;48.464;8.712;2024-03-02T05:46:51;24.00;;;14.40;;
25351;SDS011;13304;48.464;8.712;2024-03-02T05:49:17;26.08;;;15.38;;
25351;SDS011;13304;48.464;8.712;2024-03-02T05:51:43;21.65;;;14.13;;
25351;SDS011;13304;48.464;8.712;2024-03-02T05:54:09;24.25;;;14.52;;
25351;SDS011;13304;48.464;8.712;2024-03-02T05:56:35;25.27;;;15.75;;
25351;SDS011;13304;48.464;8.712;2024-03-02T05:59:00;26.23;;;15.52;;
25351;SDS011;13304;48.464;8.712;2024-03-02T06:01:41;29.40;;;15.80;;
25351;SDS011;13304;48.464;8.712;2024-03-02T06:06:33;24.63;;;14.68;;
25351;SDS011;13304;48.464;8.712;2024-03-02T06:09:02;22.20;;;14.80;;
25351;SDS011;13304;48.464;8.712;2024-03-02T06:11:33;24.65;;;15.30;;
25351;SDS011;13304;48.464;8.712;2024-03-02T06:14:02;27.20;;;15.23;;
25351;SDS011;13304;48.464;8.712;2024-03-02T06:16:30;23.65;;;15.20;;
25351;SDS011;13304;48.464;8.712;2024-03-02T06:18:57;23.90;;;15.05;;
25351;SDS011;13304;48.464;8.712;2024-03-02T06:21:26;24.45;;;14.88;;
25351;SDS011;13304;48.464;8.712;2024-03-02T06:23:52;25.88;;;16.38;;
25351;SDS011;13304;48.464;8.712;2024-03-02T06:26:18;27.88;;;15.50;;
25351;SDS011;13304;48.464;8.712;2024-03-02T06:28:45;23.85;;;15.38;;
25351;SDS011;13304;48.464;8.712;2024-03-02T06:31:11;23.85;;;15.05;;
25351;SDS011;13304;48.464;8.712;2024-03-02T06:33:36;24.17;;;14.95;;
25351;SDS011;13304;48.464;8.712;2024-03-02T06:36:02;22.52;;;14.55;;
25351;SDS011;13304;48.464;8.712;2024-03-02T06:38:28;22.83;;;14.45;;
25351;SDS011;13304;48.464;8.712;2024-03-02T06:40:57;25.80;;;14.90;;
25351;SDS011;13304;48.464;8.712;2024-03-02T06:43:23;24.65;;;14.20;;
25351;SDS011;13304;48.464;8.712;2024-03-02T06:45:49;24.40;;;14.80;;
25351;SDS011;13304;48.464;8.712;2024-03-02T06:48:16;24.98;;;14.65;;
25351;SDS011;13304;48.464;8.712;2024-03-02T06:50:48;23.30;;;14.45;;
25351;SDS011;13304;48.464;8.712;2024-03-02T06:53:15;24.65;;;14.93;;
25351;SDS011;13304;48.464;8.712;2024-03-02T06:55:43;23.00;;;13.68;;
25351;SDS011;13304;48.464;8.712;2024-03-02T06:58:10;22.70;;;14.48;;
25351;SDS011;13304;48.464;8.712;2024-03-02T07:00:36;23.85;;;15.02;;
25351;SDS011;13304;48.464;8.712;2024-03-02T07:03:02;23.58;;;15.38;;
25351;SDS011;13304;48.464;8.712;2024-03-02T07:05:27;24.23;;;14.18;;
25351;SDS011;13304;48.464;8.712;2024-03-02T07:07:53;24.67;;;14.32;;
25351;SDS011;13304;48.464;8.712;2024-03-02T07:10:19;22.05;;;14.70;;
25351;SDS011;13304;48.464;8.712;2024-03-02T07:12:44;29.10;;;16.50;;
25351;SDS011;13304;48.464;8.712;2024-03-02T07:15:10;26.90;;;15.35;;
25351;SDS011;13304;48.464;8.712;2024-03-02T07:17:43;28.80;;;16.00;;
25351;SDS011;13304;48.464;8.712;2024-03-02T07:20:09;27.27;;;16.75;;
25351;SDS011;13304;48.464;8.712;2024-03-02T07:22:37;27.55;;;16.73;;
25351;SDS011;13304;48.464;8.712;2024-03-02T07:25:03;29.38;;;16.23;;
25351;SDS011;13304;48.464;8.712;2024-03-02T07:27:29;27.25;;;17.02;;
25351;SDS011;13304;48.464;8.712;2024-03-02T07:29:56;28.15;;;16.65;;
25351;SDS011;13304;48.464;8.712;2024-03-02T07:32:22;32.25;;;19.13;;
25351;SDS011;13304;48.464;8.712;2024-03-02T07:34:47;41.20;;;23.13;;
25351;SDS011;13304;48.464;8.712;2024-03-02T07:37:13;54.55;;;27.55;;
25351;SDS011;13304;48.464;8.712;2024-03-02T07:39:39;45.78;;;24.70;;
25351;SDS011;13304;48.464;8.712;2024-03-02T07:42:04;38.45;;;22.98;;
25351;SDS011;13304;48.464;8.712;2024-03-02T07:44:31;34.40;;;20.65;;
25351;SDS011;13304;48.464;8.712;2024-03-02T07:46:56;29.05;;;18.80;;
25351;SDS011;13304;48.464;8.712;2024-03-02T07:49:22;28.90;;;17.30;;
25351;SDS011;13304;48.464;8.712;2024-03-02T07:51:48;26.30;;;16.50;;
25351;SDS011;13304;48.464;8.712;2024-03-02T07:54:13;27.25;;;15.95;;
25351;SDS011;13304;48.464;8.712;2024-03-02T07:56:42;26.05;;;15.98;;
25351;SDS011;13304;48.464;8.712;2024-03-02T07:59:08;29.30;;;15.98;;
25351;SDS011;13304;48.464;8.712;2024-03-02T08:01:34;24.13;;;15.52;;
25351;SDS011;13304;48.464;8.712;2024-03-02T08:04:00;23.85;;;15.40;;
25351;SDS011;13304;48.464;8.712;2024-03-02T08:06:28;25.92;;;15.88;;
25351;SDS011;13304;48.464;8.712;2024-03-02T08:08:58;24.92;;;15.15;;
25351;SDS011;13304;48.464;8.712;2024-03-02T08:11:25;24.55;;;15.32;;
25351;SDS011;13304;48.464;8.712;2024-03-02T08:13:52;21.73;;;14.82;;
25351;SDS011;13304;48.464;8.712;2024-03-02T08:16:20;21.98;;;13.60;;
25351;SDS011;13304;48.464;8.712;2024-03-02T08:18:47;21.63;;;13.88;;
25351;SDS011;13304;48.464;8.712;2024-03-02T08:21:14;21.98;;;14.18;;
25351;SDS011;13304;48.464;8.712;2024-03-02T08:23:40;21.45;;;13.13;;
25351;SDS011;13304;48.464;8.712;2024-03-02T08:26:07;20.63;;;13.23;;
25351;SDS011;13304;48.464;8.712;2024-03-02T08:28:33;22.80;;;14.20;;
25351;SDS011;13304;48.464;8.712;2024-03-02T08:30:59;22.17;;;13.25;;
25351;SDS011;13304;48.464;8.712;2024-03-02T08:33:24;20.88;;;14.27;;
25351;SDS011;13304;48.464;8.712;2024-03-02T08:35:50;20.20;;;12.63;;
25351;SDS011;13304;48.464;8.712;2024-03-02T08:38:16;17.17;;;11.73;;
25351;SDS011;13304;48.464;8.712;2024-03-02T08:40:42;18.83;;;11.80;;
25351;SDS011;13304;48.464;8.712;2024-03-02T08:43:08;26.02;;;12.57;;
25351;SDS011;13304;48.464;8.712;2024-03-02T08:45:34;19.63;;;11.55;;
25351;SDS011;13304;48.464;8.712;2024-03-02T08:48:00;19.17;;;10.60;;
25351;SDS011;13304;48.464;8.712;2024-03-02T08:50:25;18.48;;;10.57;;
25351;SDS011;13304;48.464;8.712;2024-03-02T08:52:51;19.13;;;10.27;;
25351;SDS011;13304;48.464;8.712;2024-03-02T08:55:17;17.67;;;10.50;;
25351;SDS011;13304;48.464;8.712;2024-03-02T08:57:42;15.27;;;10.40;;
25351;SDS011;13304;48.464;8.712;2024-03-02T09:00:08;15.38;;;9.68;;
25351;SDS011;13304;48.464;8.712;2024-03-02T09:02:34;14.30;;;9.68;;
25351;SDS011;13304;48.464;8.712;2024-03-02T09:05:00;16.50;;;9.73;;
25351;SDS011;13304;48.464;8.712;2024-03-02T09:07:26;16.55;;;9.75;;
25351;SDS011;13304;48.464;8.712;2024-03-02T09:09:52;12.85;;;8.45;;
25351;SDS011;13304;48.464;8.712;2024-03-02T09:12:18;18.02;;;10.25;;
25351;SDS011;13304;48.464;8.712;2024-03-02T09:14:44;22.52;;;9.57;;
25351;SDS011;13304;48.464;8.712;2024-03-02T09:17:10;14.57;;;8.82;;
25351;SDS011;13304;48.464;8.712;2024-03-02T09:19:37;16.38;;;8.80;;
25351;SDS011;13304;48.464;8.712;2024-03-02T09:22:03;13.23;;;8.48;;
25351;SDS011;13304;48.464;8.712;2024-03-02T09:24:32;15.15;;;7.82;;
25351;SDS011;13304;48.464;8.712;2024-03-02T09:27:00;16.75;;;8.23;;
25351;SDS011;13304;48.464;8.712;2024-03-02T09:29:26;11.25;;;7.20;;
25351;SDS011;13304;48.464;8.712;2024-03-02T09:31:52;11.63;;;8.13;;
25351;SDS011;13304;48.464;8.712;2024-03-02T09:34:18;11.73;;;7.88;;
25351;SDS011;13304;48.464;8.712;2024-03-02T09:36:44;14.93;;;8.73;;
25351;SDS011;13304;48.464;8.712;2024-03-02T09:39:10;11.80;;;8.10;;
25351;SDS011;13304;48.464;8.712;2024-03-02T09:41:38;9.10;;;6.72;;
25351;SDS011;13304;48.464;8.712;2024-03-02T09:44:05;10.10;;;7.13;;
25351;SDS011;13304;48.464;8.712;2024-03-02T09:46:31;12.82;;;7.25;;
25351;SDS011;13304;48.464;8.712;2024-03-02T09:48:57;10.57;;;7.05;;
25351;SDS011;13304;48.464;8.712;2024-03-02T09:51:22;11.93;;;7.25;;
25351;SDS011;13304;48.464;8.712;2024-03-02T09:53:48;13.05;;;7.20;;
25351;SDS011;13304;48.464;8.712;2024-03-02T09:56:15;11.23;;;6.20;;
25351;SDS011;13304;48.464;8.712;2024-03-02T09:58:45;8.27;;;5.97;;
25351;SDS011;13304;48.464;8.712;2024-03-02T10:01:10;11.80;;;6.18;;
25351;SDS011;13304;48.464;8.712;2024-03-02T10:03:36;7.40;;;4.80;;
25351;SDS011;13304;48.464;8.712;2024-03-02T10:06:18;8.48;;;5.53;;
25351;SDS011;13304;48.464;8.712;2024-03-02T10:08:47;8.88;;;5.03;;
25351;SDS011;13304;48.464;8.712;2024-03-02T10:14:03;7.45;;;5.35;;
25351;SDS011;13304;48.464;8.712;2024-03-02T10:16:33;9.98;;;4.88;;
25351;SDS011;13304;48.464;8.712;2024-03-02T10:21:40;5.85;;;3.83;;
25351;SDS011;13304;48.464;8.712;2024-03-02T10:24:06;5.72;;;3.70;;
25351;SDS011;13304;48.464;8.712;2024-03-02T10:26:32;7.10;;;4.03;;
25351;SDS011;13304;48.464;8.712;2024-03-02T10:28:57;6.00;;;3.97;;
25351;SDS011;13304;48.464;8.712;2024-03-02T10:31:24;6.63;;;4.10;;
25351;SDS011;13304;48.464;8.712;2024-03-02T10:33:54;7.05;;;4.28;;
25351;SDS011;13304;48.464;8.712;2024-03-02T10:36:20;4.55;;;3.25;;
25351;SDS011;13304;48.464;8.712;2024-03-02T10:38:46;7.50;;;3.58;;
25351;SDS011;13304;48.464;8.712;2024-03-02T10:41:19;5.95;;;3.47;;
25351;SDS011;13304;48.464;8.712;2024-03-02T10:43:48;6.65;;;3.75;;
25351;SDS011;13304;48.464;8.712;2024-03-02T10:46:18;6.50;;;3.65;;
25351;SDS011;13304;48.464;8.712;2024-03-02T10:48:45;6.35;;;3.58;;
25351;SDS011;13304;48.464;8.712;2024-03-02T10:51:11;4.82;;;3.38;;
25351;SDS011;13304;48.464;8.712;2024-03-02T10:53:37;4.85;;;3.40;;
25351;SDS011;13304;48.464;8.712;2024-03-02T10:56:03;5.97;;;3.40;;
25351;SDS011;13304;48.464;8.712;2024-03-02T10:58:32;7.93;;;3.30;;
25351;SDS011;13304;48.464;8.712;2024-03-02T11:01:02;6.43;;;3.47;;
25351;SDS011;13304;48.464;8.712;2024-03-02T11:03:33;4.68;;;3.22;;
25351;SDS011;13304;48.464;8.712;2024-03-02T11:06:01;6.07;;;3.55;;
25351;SDS011;13304;48.464;8.712;2024-03-02T11:08:32;4.40;;;3.17;;
25351;SDS011;13304;48.464;8.712;2024-03-02T11:11:02;5.57;;;3.13;;
25351;SDS011;13304;48.464;8.712;2024-03-02T11:13:39;6.40;;;2.88;;
25351;SDS011;13304;48.464;8.712;2024-03-02T11:16:16;5.18;;;3.05;;
25351;SDS011;13304;48.464;8.712;2024-03-02T11:18:45;5.93;;;3.33;;
25351;SDS011;13304;48.464;8.712;2024-03-02T11:21:12;6.18;;;3.10;;
25351;SDS011;13304;48.464;8.712;2024-03-02T11:23:38;4.03;;;2.72;;
25351;SDS011;13304;48.464;8.712;2024-03-02T11:26:19;4.60;;;3.35;;
25351;SDS011;13304;48.464;8.712;2024-03-02T11:28:46;3.85;;;2.78;;
25351;SDS011;13304;48.464;8.712;2024-03-02T11:31:11;4.43;;;2.85;;
25351;SDS011;13304;48.464;8.712;2024-03-02T11:33:37;4.95;;;2.65;;
25351;SDS011;13304;48.464;8.712;2024-03-02T11:36:03;4.13;;;2.60;;
25351;SDS011;13304;48.464;8.712;2024-03-02T11:38:32;5.03;;;2.80;;
25351;SDS011;13304;48.464;8.712;2024-03-02T11:41:02;3.67;;;2.60;;
25351;SDS011;13304;48.464;8.712;2024-03-02T11:43:32;4.40;;;2.65;;
25351;SDS011;13304;48.464;8.712;2024-03-02T11:45:59;4.35;;;2.40;;
25351;SDS011;13304;48.464;8.712;2024-03-02T11:48:25;3.90;;;2.33;;
25351;SDS011;13304;48.464;8.712;2024-03-02T11:50:52;3.67;;;2.35;;
25351;SDS011;13304;48.464;8.712;2024-03-02T11:53:19;2.67;;;1.90;;
25351;SDS011;13304;48.464;8.712;2024-03-02T11:55:45;2.92;;;2.00;;
25351;SDS011;13304;48.464;8.712;2024-03-02T11:58:11;2.95;;;1.85;;
25351;SDS011;13304;48.464;8.712;2024-03-02T12:00:38;3.85;;;1.83;;
25351;SDS011;13304;48.464;8.712;2024-03-02T12:05:34;2.10;;;1.25;;
25351;SDS011;13304;48.464;8.712;2024-03-02T12:08:01;1.60;;;1.20;;
25351;SDS011;13304;48.464;8.712;2024-03-02T12:10:28;1.95;;;1.20;;
25351;SDS011;13304;48.464;8.712;2024-03-02T12:12:58;2.67;;;1.27;;
25351;SDS011;13304;48.464;8.712;2024-03-02T12:15:25;2.50;;;1.17;;
25351;SDS011;13304;48.464;8.712;2024-03-02T12:17:55;1.55;;;1.15;;
25351;SDS011;13304;48.464;8.712;2024-03-02T12:20:22;2.42;;;1.38;;
25351;SDS011;13304;48.464;8.712;2024-03-02T12:22:51;2.42;;;1.10;;
25351;SDS011;13304;48.464;8.712;2024-03-02T12:25:19;2.30;;;1.30;;
25351;SDS011;13304;48.464;8.712;2024-03-02T12:27:51;1.73;;;1.00;;
25351;SDS011;13304;48.464;8.712;2024-03-02T12:30:22;1.23;;;1.00;;
25351;SDS011;13304;48.464;8.712;2024-03-02T12:32:48;1.45;;;1.02;;
25351;SDS011;13304;48.464;8.712;2024-03-02T12:35:15;0.80;;;0.60;;
25351;SDS011;13304;48.464;8.712;2024-03-02T12:37:47;1.95;;;0.90;;
25351;SDS011;13304;48.464;8.712;2024-03-02T12:40:14;2.00;;;1.00;;
25351;SDS011;13304;48.464;8.712;2024-03-02T12:42:43;1.58;;;1.02;;
25351;SDS011;13304;48.464;8.712;2024-03-02T12:45:10;3.95;;;1.95;;
25351;SDS011;13304;48.464;8.712;2024-03-02T12:47:36;3.50;;;1.80;;
25351;SDS011;13304;48.464;8.712;2024-03-02T12:50:04;3.05;;;1.50;;
25351;SDS011;13304;48.464;8.712;2024-03-02T12:52:30;4.28;;;1.88;;
25351;SDS011;13304;48.464;8.712;2024-03-02T12:54:58;3.40;;;1.83;;
25351;SDS011;13304;48.464;8.712;2024-03-02T12:57:25;4.50;;;1.92;;
25351;SDS011;13304;48.464;8.712;2024-03-02T13:00:01;3.50;;;1.88;;
25351;SDS011;13304;48.464;8.712;2024-03-02T13:02:36;9.18;;;4.32;;
25351;SDS011;13304;48.464;8.712;2024-03-02T13:05:04;8.93;;;4.00;;
25351;SDS011;13304;48.464;8.712;2024-03-02T13:07:36;11.27;;;4.10;;
25351;SDS011;13304;48.464;8.712;2024-03-02T13:10:02;8.10;;;4.05;;
25351;SDS011;13304;48.464;8.712;2024-03-02T13:12:28;8.68;;;4.22;;
25351;SDS011;13304;48.464;8.712;2024-03-02T13:14:55;8.00;;;3.72;;
25351;SDS011;13304;48.464;8.712;2024-03-02T13:17:23;7.68;;;3.33;;
25351;SDS011;13304;48.464;8.712;2024-03-02T13:19:53;8.25;;;3.55;;
25351;SDS011;13304;48.464;8.712;2024-03-02T13:22:25;9.60;;;4.25;;
25351;SDS011;13304;48.464;8.712;2024-03-02T13:24:51;8.00;;;3.53;;
25351;SDS011;13304;48.464;8.712;2024-03-02T13:27:19;7.95;;;3.83;;
25351;SDS011;13304;48.464;8.712;2024-03-02T13:29:47;8.50;;;4.15;;
25351;SDS011;13304;48.464;8.712;2024-03-02T13:32:14;6.90;;;3.40;;
25351;SDS011;13304;48.464;8.712;2024-03-02T13:34:40;7.70;;;3.13;;
25351;SDS011;13304;48.464;8.712;2024-03-02T13:37:06;6.78;;;3.10;;
25351;SDS011;13304;48.464;8.712;2024-03-02T13:39:32;6.68;;;3.10;;
25351;SDS011;13304;48.464;8.712;2024-03-02T13:42:04;7.05;;;2.70;;
25351;SDS011;13304;48.464;8.712;2024-03-02T13:44:40;3.80;;;2.10;;
25351;SDS011;13304;48.464;8.712;2024-03-02T13:47:09;3.33;;;1.63;;
25351;SDS011;13304;48.464;8.712;2024-03-02T13:49:34;3.92;;;1.88;;
25351;SDS011;13304;48.464;8.712;2024-03-02T13:52:05;3.90;;;1.88;;
25351;SDS011;13304;48.464;8.712;2024-03-02T13:54:40;4.43;;;2.05;;
25351;SDS011;13304;48.464;8.712;2024-03-02T13:57:07;3.92;;;1.80;;
25351;SDS011;13304;48.464;8.712;2024-03-02T13:59:34;5.93;;;2.10;;
25351;SDS011;13304;48.464;8.712;2024-03-02T14:02:01;5.05;;;2.35;;
25351;SDS011;13304;48.464;8.712;2024-03-02T14:04:29;4.03;;;1.80;;
25351;SDS011;13304;48.464;8.712;2024-03-02T14:06:56;3.83;;;2.15;;
25351;SDS011;13304;48.464;8.712;2024-03-02T14:09:22;5.05;;;2.45;;
25351;SDS011;13304;48.464;8.712;2024-03-02T14:11:49;6.20;;;2.83;;
25351;SDS011;13304;48.464;8.712;2024-03-02T14:14:16;3.50;;;1.90;;
25351;SDS011;13304;48.464;8.712;2024-03-02T14:16:42;3.72;;;1.77;;
25351;SDS011;13304;48.464;8.712;2024-03-02T14:19:09;4.38;;;2.00;;
25351;SDS011;13304;48.464;8.712;2024-03-02T14:21:35;3.08;;;1.75;;
25351;SDS011;13304;48.464;8.712;2024-03-02T14:24:01;2.78;;;1.80;;
25351;SDS011;13304;48.464;8.712;2024-03-02T14:26:27;4.15;;;2.00;;
25351;SDS011;13304;48.464;8.712;2024-03-02T14:28:53;3.88;;;2.10;;
25351;SDS011;13304;48.464;8.712;2024-03-02T14:31:19;4.97;;;2.20;;
25351;SDS011;13304;48.464;8.712;2024-03-02T14:33:46;3.10;;;1.92;;
25351;SDS011;13304;48.464;8.712;2024-03-02T14:36:12;3.65;;;2.20;;
25351;SDS011;13304;48.464;8.712;2024-03-02T14:38:38;14.15;;;8.32;;
25351;SDS011;13304;48.464;8.712;2024-03-02T14:41:04;9.00;;;6.05;;